Time;durP1;ratioP1;P1;durP2;ratioP2;P2;SDS_P1;SDS_P2;PMS_P1;PMS_P2;Temp;Humidity;BMP_temperature;BMP_pressure;BME280_temperature;BME280_humidity;BME280_pressure;Samples;Min_cycle;Max_cycle;Signal;HPM_P1;HPM_P2
2023/02/24 00:00:50;;;;;;;;;;;12.00;99.90;12.70;99000.00;;;;344366;28;88937;-87
2023/02/24 00:01:11;;;;;;;;;;;12.10;99.90;12.80;98998.00;;;;347577;28;82430;-87
2023/02/24 00:01:27;;;;;;;;;;;12.10;99.90;12.70;98998.00;;;;348666;27;88941;-88
2023/02/24 00:01:39;;;;;;;;;;;12.10;99.90;12.60;99002.00;;;;350361;27;82535;-88
2023/02/24 00:02:00;;;;;;;;;;;12.10;99.90;12.50;99000.00;;;;348568;27;89063;-87
2023/02/24 00:02:13;;;;;;;;;;;12.10;99.90;12.50;98998.00;;;;349052;27;82538;-87
2023/02/24 00:02:26;;;;;;;;;;;12.10;99.90;12.50;98995.00;;;;347124;28;90435;-87
2023/02/24 00:02:38;;;;;;;;;;;12.10;99.90;12.50;98999.00;;;;347512;27;83148;-87
2023/02/24 00:02:51;;;;;;;;;;;12.10;99.90;12.50;98998.00;;;;350098;27;87739;-87
2023/02/24 00:03:09;;;;;;;;;;;12.10;99.90;12.40;99007.00;;;;347728;28;83055;-88
2023/02/24 00:03:22;;;;;;;;;;;12.10;99.90;12.40;98996.00;;;;347073;27;90469;-88
2023/02/24 00:03:36;;;;;;;;;;;12.10;99.90;12.40;99001.00;;;;346268;28;83318;-87
2023/02/24 00:03:48;;;;;;;;;;;12.10;99.90;12.40;98990.00;;;;345830;28;88069;-87
2023/02/24 00:04:00;;;;;;;;;;;12.10;99.90;12.40;98999.00;;;;348833;27;83467;-88
2023/02/24 00:04:12;;;;;;;;;;;12.10;99.90;12.40;98995.00;;;;348323;27;90742;-88
2023/02/24 00:04:24;;;;;;;;;;;12.10;99.90;12.40;98999.00;;;;347445;28;83515;-88
2023/02/24 00:04:39;;;;;;;;;;;12.00;99.90;12.40;98997.00;;;;347058;27;88743;-88
2023/02/24 00:04:51;;;;;;;;;;;12.00;99.90;12.40;98999.00;;;;347358;28;82637;-88
2023/02/24 00:05:03;;;;;;;;;;;12.10;99.90;12.40;98993.00;;;;348491;27;91590;-87
2023/02/24 00:05:15;;;;;;;;;;;12.00;99.90;12.40;99002.00;;;;350396;27;83432;-88
2023/02/24 00:05:27;;;;;;;;;;;12.00;99.90;12.40;98995.00;;;;347091;28;91257;-87
2023/02/24 00:05:41;;;;;;;;;;;12.00;99.90;12.30;98994.00;;;;347602;28;82519;-87
2023/02/24 00:05:53;;;;;;;;;;;12.00;99.90;12.20;98999.00;;;;347183;27;89511;-88
2023/02/24 00:06:10;;;;;;;;;;;12.00;99.90;12.20;98998.00;;;;346209;28;82606;-88
2023/02/24 00:06:34;;;;;;;;;;;12.00;99.90;12.10;98996.00;;;;347276;28;88531;-88
2023/02/24 00:06:46;;;;;;;;;;;12.00;99.90;12.10;98996.00;;;;347301;28;82433;-88
2023/02/24 00:06:58;;;;;;;;;;;11.90;99.90;12.20;98990.00;;;;345718;28;89205;-87
2023/02/24 00:07:11;;;;;;;;;;;11.90;99.90;12.20;98993.00;;;;350219;27;83633;-88
2023/02/24 00:07:23;;;;;;;;;;;11.90;99.90;12.20;98992.00;;;;347304;28;87776;-87
2023/02/24 00:07:35;;;;;;;;;;;11.90;99.90;12.20;98997.00;;;;346123;27;83557;-88
2023/02/24 00:07:47;;;;;;;;;;;12.00;99.90;12.20;98993.00;;;;344404;28;90905;-86
2023/02/24 00:07:58;;;;;;;;;;;11.90;99.90;12.30;98997.00;;;;348865;27;83374;-88
2023/02/24 00:08:10;;;;;;;;;;;11.90;99.90;12.30;98988.00;;;;347025;28;90265;-87
2023/02/24 00:08:22;;;;;;;;;;;11.90;99.90;12.20;98992.00;;;;347577;28;83950;-87
2023/02/24 00:08:34;;;;;;;;;;;11.90;99.90;12.30;98992.00;;;;348358;27;91444;-87
2023/02/24 00:08:46;;;;;;;;;;;11.90;99.90;12.20;98995.00;;;;347424;28;83556;-87
2023/02/24 00:08:58;;;;;;;;;;;11.90;99.90;12.20;98992.00;;;;345792;28;92484;-87
2023/02/24 00:09:20;;;;;;;;;;;11.90;99.90;12.20;98996.00;;;;347555;27;83342;-86
2023/02/24 00:09:32;;;;;;;;;;;11.90;99.90;12.20;98991.00;;;;345630;28;90796;-87
2023/02/24 00:09:44;;;;;;;;;;;11.90;99.90;12.20;98995.00;;;;347657;28;82538;-88
2023/02/24 00:09:56;;;;;;;;;;;11.90;99.90;12.20;98988.00;;;;347075;27;90593;-88
2023/02/24 00:10:09;;;;;;;;;;;11.90;99.90;12.20;99000.00;;;;347675;28;82462;-87
2023/02/24 00:10:20;;;;;;;;;;;11.90;99.90;12.30;99001.00;;;;345581;28;90523;-88
2023/02/24 00:10:32;;;;;;;;;;;11.90;99.90;12.30;98998.00;;;;346095;28;83447;-87
2023/02/24 00:10:46;;;;;;;;;;;11.90;99.90;12.40;98988.00;;;;346889;28;91949;-87
2023/02/24 00:10:58;;;;;;;;;;;11.90;99.90;12.30;98996.00;;;;346376;28;83222;-87
2023/02/24 00:11:14;;;;;;;;;;;11.90;99.90;12.30;99004.00;;;;349808;27;89006;-87
2023/02/24 00:11:26;;;;;;;;;;;11.90;99.90;12.30;99002.00;;;;349126;27;83368;-87
2023/02/24 00:11:51;;;;;;;;;;;11.90;99.90;12.30;98993.00;;;;348581;27;88531;-87
2023/02/24 00:12:07;;;;;;;;;;;11.90;99.90;12.30;98991.00;;;;346288;28;82504;-87
2023/02/24 00:12:19;;;;;;;;;;;11.90;99.90;12.30;98993.00;;;;345716;28;91541;-87
2023/02/24 00:12:31;;;;;;;;;;;11.90;99.90;12.30;98989.00;;;;346276;28;82361;-87
2023/02/24 00:12:45;;;;;;;;;;;11.90;99.90;12.40;98990.00;;;;345682;28;89235;-87
2023/02/24 00:12:58;;;;;;;;;;;11.90;99.90;12.40;98996.00;;;;348753;27;83625;-87
2023/02/24 00:13:11;;;;;;;;;;;12.00;99.90;12.30;98999.00;;;;347198;28;89199;-87
2023/02/24 00:13:22;;;;;;;;;;;12.00;99.90;12.30;98986.00;;;;344654;28;83515;-87
2023/02/24 00:13:35;;;;;;;;;;;12.00;99.90;12.30;98990.00;;;;347217;28;88866;-88
2023/02/24 00:13:47;;;;;;;;;;;11.90;99.90;12.30;98988.00;;;;347520;28;82413;-86
2023/02/24 00:13:58;;;;;;;;;;;11.90;99.90;12.30;98990.00;;;;345622;28;90970;-87
2023/02/24 00:14:15;;;;;;;;;;;11.90;99.90;12.30;98991.00;;;;347386;28;83575;-88
2023/02/24 00:14:31;;;;;;;;;;;11.90;99.90;12.30;98992.00;;;;348210;27;91495;-87
2023/02/24 00:14:43;;;;;;;;;;;11.90;99.90;12.30;98989.00;;;;347541;28;83439;-87
2023/02/24 00:14:55;;;;;;;;;;;11.90;99.90;12.40;98989.00;;;;348457;27;90787;-87
2023/02/24 00:15:08;;;;;;;;;;;11.90;99.90;12.40;98988.00;;;;347711;28;83312;-87
2023/02/24 00:15:19;;;;;;;;;;;11.90;99.90;12.40;98985.00;;;;347006;27;87557;-87
2023/02/24 00:15:31;;;;;;;;;;;12.00;99.90;12.40;98990.00;;;;348876;27;83221;-87
2023/02/24 00:15:44;;;;;;;;;;;11.90;99.90;12.50;98989.00;;;;344510;28;87040;-87
2023/02/24 00:16:05;;;;;;;;;;;11.90;99.90;12.50;98996.00;;;;347601;28;83352;-88
2023/02/24 00:16:17;;;;;;;;;;;11.90;99.90;12.40;98987.00;;;;347000;28;88871;-87
2023/02/24 00:16:29;;;;;;;;;;;12.00;99.90;12.40;98993.00;;;;344795;28;83444;-87
2023/02/24 00:16:43;;;;;;;;;;;12.00;99.90;12.40;98992.00;;;;348544;27;89939;-88
2023/02/24 00:16:55;;;;;;;;;;;12.00;99.90;12.40;98988.00;;;;347639;28;83277;-87
2023/02/24 00:17:07;;;;;;;;;;;12.00;99.90;12.40;98985.00;;;;348581;27;89189;-87
2023/02/24 00:17:19;;;;;;;;;;;12.00;99.90;12.40;98986.00;;;;349005;27;82584;-87
2023/02/24 00:17:31;;;;;;;;;;;12.00;99.90;12.40;98979.00;;;;348253;27;90867;-87
2023/02/24 00:17:44;;;;;;;;;;;12.00;99.90;12.40;98982.00;;;;347245;28;83489;-87
2023/02/24 00:17:57;;;;;;;;;;;12.00;99.90;12.40;98987.00;;;;347108;28;89905;-87
2023/02/24 00:18:09;;;;;;;;;;;12.00;99.90;12.50;98987.00;;;;348773;27;83528;-88
2023/02/24 00:18:20;;;;;;;;;;;12.00;99.90;12.50;98982.00;;;;348263;27;92086;-87
2023/02/24 00:18:32;;;;;;;;;;;12.00;99.90;12.40;98984.00;;;;347253;27;83701;-87
2023/02/24 00:18:44;;;;;;;;;;;12.00;99.90;12.40;98980.00;;;;344390;28;89825;-87
2023/02/24 00:18:56;;;;;;;;;;;12.00;99.90;12.40;98987.00;;;;344852;28;83309;-87
2023/02/24 00:19:12;;;;;;;;;;;12.00;99.90;12.30;98988.00;;;;345695;28;91815;-87
2023/02/24 00:19:24;;;;;;;;;;;12.00;99.90;12.40;98982.00;;;;349039;27;82534;-87
2023/02/24 00:19:36;;;;;;;;;;;12.00;99.90;12.30;98986.00;;;;347183;28;89521;-87
2023/02/24 00:19:48;;;;;;;;;;;12.00;99.90;12.30;98993.00;;;;344771;28;83338;-87
2023/02/24 00:20:00;;;;;;;;;;;12.00;99.90;12.30;98991.00;;;;346954;28;90817;-88
2023/02/24 00:20:12;;;;;;;;;;;12.00;99.90;12.30;98986.00;;;;347542;28;83316;-87
2023/02/24 00:20:24;;;;;;;;;;;12.00;99.90;12.20;98990.00;;;;348526;27;90064;-87
2023/02/24 00:20:36;;;;;;;;;;;12.00;99.90;12.20;98985.00;;;;345929;28;83521;-88
2023/02/24 00:20:48;;;;;;;;;;;12.00;99.90;12.10;98974.00;;;;347057;28;90326;-87
2023/02/24 00:21:08;;;;;;;;;;;12.00;99.90;12.10;98992.00;;;;347597;28;82341;-87
2023/02/24 00:21:20;;;;;;;;;;;12.00;99.90;12.10;98980.00;;;;347074;27;89323;-87
2023/02/24 00:21:33;;;;;;;;;;;12.00;99.90;12.20;98988.00;;;;347580;28;82360;-87
2023/02/24 00:21:45;;;;;;;;;;;12.00;99.90;12.10;98990.00;;;;345815;28;90362;-87
2023/02/24 00:21:58;;;;;;;;;;;11.90;99.90;12.10;98995.00;;;;347545;28;83369;-87
2023/02/24 00:22:11;;;;;;;;;;;11.90;99.90;12.10;98995.00;;;;345903;28;89113;-88
2023/02/24 00:22:23;;;;;;;;;;;12.00;99.90;12.10;98987.00;;;;346281;28;83295;-87
2023/02/24 00:22:35;;;;;;;;;;;11.90;99.90;12.10;98999.00;;;;344359;28;88728;-87
2023/02/24 00:22:47;;;;;;;;;;;11.90;99.90;12.10;98989.00;;;;347700;28;83190;-87
2023/02/24 00:22:59;;;;;;;;;;;11.90;99.90;12.10;98978.00;;;;348485;27;90716;-87
2023/02/24 00:23:11;;;;;;;;;;;11.90;99.90;12.10;98985.00;;;;350500;27;82417;-87
2023/02/24 00:23:22;;;;;;;;;;;11.90;99.90;12.20;98981.00;;;;346976;28;91690;-88
2023/02/24 00:23:37;;;;;;;;;;;11.90;99.90;12.20;98986.00;;;;347524;28;83450;-87
2023/02/24 00:23:49;;;;;;;;;;;11.90;99.90;12.20;98980.00;;;;348306;27;89245;-87
2023/02/24 00:24:00;;;;;;;;;;;11.90;99.90;12.20;98986.00;;;;344900;28;83400;-87
2023/02/24 00:24:12;;;;;;;;;;;11.90;99.90;12.20;98984.00;;;;347251;28;91234;-87
2023/02/24 00:24:24;;;;;;;;;;;11.90;99.90;12.20;98987.00;;;;347752;28;82503;-87
2023/02/24 00:24:36;;;;;;;;;;;11.90;99.90;12.20;98991.00;;;;347130;28;88438;-87
2023/02/24 00:24:48;;;;;;;;;;;11.90;99.90;12.20;98985.00;;;;346171;28;83367;-87
2023/02/24 00:25:02;;;;;;;;;;;11.90;99.90;12.20;98990.00;;;;347002;28;89980;-87
2023/02/24 00:25:14;;;;;;;;;;;11.90;99.90;12.20;98983.00;;;;347505;28;83487;-87
2023/02/24 00:25:26;;;;;;;;;;;11.90;99.90;12.10;98986.00;;;;346932;28;90172;-87
2023/02/24 00:25:38;;;;;;;;;;;11.90;99.90;12.10;98979.00;;;;347316;28;83568;-87
2023/02/24 00:25:58;;;;;;;;;;;11.90;99.90;12.10;98982.00;;;;345623;28;90218;-87
2023/02/24 00:26:11;;;;;;;;;;;11.90;99.90;12.10;98990.00;;;;348964;27;83373;-87
2023/02/24 00:26:23;;;;;;;;;;;11.90;99.90;12.10;98989.00;;;;345768;28;88367;-87
2023/02/24 00:26:35;;;;;;;;;;;11.90;99.90;12.00;98978.00;;;;344823;28;83468;-88
2023/02/24 00:26:54;;;;;;;;;;;11.90;99.90;12.00;98992.00;;;;345864;28;90576;-87
2023/02/24 00:27:06;;;;;;;;;;;11.90;99.90;12.00;98984.00;;;;348776;27;82492;-87
2023/02/24 00:27:18;;;;;;;;;;;11.80;99.90;12.00;98984.00;;;;347085;28;90458;-87
2023/02/24 00:27:31;;;;;;;;;;;11.90;99.90;12.00;98982.00;;;;346200;28;83276;-88
2023/02/24 00:27:43;;;;;;;;;;;11.80;99.90;12.10;98985.00;;;;348295;27;89043;-87
2023/02/24 00:27:54;;;;;;;;;;;11.80;99.90;12.10;98982.00;;;;346105;28;83534;-87
2023/02/24 00:28:07;;;;;;;;;;;11.80;99.90;12.10;98982.00;;;;348420;27;90466;-87
2023/02/24 00:28:19;;;;;;;;;;;11.80;99.90;12.10;98979.00;;;;347343;28;83418;-88
2023/02/24 00:28:32;;;;;;;;;;;11.80;99.90;12.10;98981.00;;;;345894;28;86594;-88
2023/02/24 00:28:43;;;;;;;;;;;11.80;99.90;12.10;98986.00;;;;348785;27;83390;-88
2023/02/24 00:28:58;;;;;;;;;;;11.80;99.90;12.10;98984.00;;;;347160;28;91643;-87
2023/02/24 00:29:11;;;;;;;;;;;11.80;99.90;12.00;98982.00;;;;348768;27;83483;-88
2023/02/24 00:29:23;;;;;;;;;;;11.80;99.90;12.10;98977.00;;;;348564;27;89293;-87
2023/02/24 00:29:36;;;;;;;;;;;11.80;99.90;12.10;98980.00;;;;347617;28;82427;-87
2023/02/24 00:29:48;;;;;;;;;;;11.80;99.90;12.10;98982.00;;;;345286;28;88401;-87
2023/02/24 00:30:00;;;;;;;;;;;11.80;99.90;12.10;98982.00;;;;345888;28;82593;-88
2023/02/24 00:30:12;;;;;;;;;;;11.80;99.90;12.10;98980.00;;;;348654;27;89316;-87
2023/02/24 00:30:26;;;;;;;;;;;11.80;99.90;12.20;98978.00;;;;346103;28;83149;-87
2023/02/24 00:30:38;;;;;;;;;;;11.80;99.90;12.20;98984.00;;;;346770;28;91554;-87
2023/02/24 00:30:50;;;;;;;;;;;11.80;99.90;12.20;98976.00;;;;347634;28;83191;-87
2023/02/24 00:31:10;;;;;;;;;;;11.80;99.90;12.20;98979.00;;;;346944;28;92006;-87
2023/02/24 00:31:22;;;;;;;;;;;11.80;99.90;12.20;98989.00;;;;344856;28;83426;-87
2023/02/24 00:31:38;;;;;;;;;;;11.80;99.90;12.20;98979.00;;;;347160;28;91484;-87
2023/02/24 00:31:57;;;;;;;;;;;11.80;99.90;12.20;98981.00;;;;346179;28;83342;-87
2023/02/24 00:32:13;;;;;;;;;;;11.80;99.90;12.20;98989.00;;;;345948;28;87820;-88
2023/02/24 00:32:26;;;;;;;;;;;11.80;99.90;12.10;98984.00;;;;346249;28;83346;-87
2023/02/24 00:32:38;;;;;;;;;;;11.80;99.90;12.10;98985.00;;;;345505;28;86871;-87
2023/02/24 00:32:50;;;;;;;;;;;11.80;99.90;12.10;98985.00;;;;346277;28;83448;-87
2023/02/24 00:33:03;;;;;;;;;;;11.80;99.90;12.10;98987.00;;;;345518;28;89054;-88
2023/02/24 00:33:15;;;;;;;;;;;11.80;99.90;12.20;98986.00;;;;346170;28;83183;-87
2023/02/24 00:33:27;;;;;;;;;;;11.80;99.90;12.20;98986.00;;;;348292;27;89598;-87
2023/02/24 00:33:40;;;;;;;;;;;11.80;99.90;12.10;98980.00;;;;347614;28;83598;-88
2023/02/24 00:33:55;;;;;;;;;;;11.80;99.90;12.20;98985.00;;;;348276;27;91184;-87
2023/02/24 00:34:07;;;;;;;;;;;11.80;99.90;12.20;98985.00;;;;346162;28;83468;-87
2023/02/24 00:34:19;;;;;;;;;;;11.80;99.90;12.20;98988.00;;;;345814;28;88540;-88
2023/02/24 00:34:32;;;;;;;;;;;11.80;99.90;12.20;98983.00;;;;346132;28;82550;-87
2023/02/24 00:34:45;;;;;;;;;;;11.80;99.90;12.20;98988.00;;;;346945;28;90387;-88
2023/02/24 00:34:57;;;;;;;;;;;11.90;99.90;12.20;98991.00;;;;344933;28;82209;-87
2023/02/24 00:35:09;;;;;;;;;;;11.80;99.90;12.20;98990.00;;;;346898;28;90878;-87
2023/02/24 00:35:21;;;;;;;;;;;11.80;99.90;12.20;98992.00;;;;345987;28;83493;-88
2023/02/24 00:35:33;;;;;;;;;;;11.90;99.90;12.20;98990.00;;;;345620;28;89606;-87
2023/02/24 00:35:45;;;;;;;;;;;11.90;99.90;12.20;98988.00;;;;346169;28;83477;-88
2023/02/24 00:36:10;;;;;;;;;;;11.90;99.90;12.20;98983.00;;;;345606;28;90013;-87
2023/02/24 00:36:24;;;;;;;;;;;11.90;99.90;12.20;98987.00;;;;346144;28;83273;-88
2023/02/24 00:36:36;;;;;;;;;;;11.90;99.90;12.30;98988.00;;;;347090;28;89116;-88
2023/02/24 00:36:48;;;;;;;;;;;11.90;99.90;12.30;98997.00;;;;348800;27;83567;-88
2023/02/24 00:37:00;;;;;;;;;;;11.90;99.90;12.30;98993.00;;;;346573;28;88190;-87
2023/02/24 00:37:14;;;;;;;;;;;11.90;99.90;12.30;98991.00;;;;348959;27;83430;-87
2023/02/24 00:37:25;;;;;;;;;;;11.90;99.90;12.30;98989.00;;;;348609;27;89581;-88
2023/02/24 00:37:37;;;;;;;;;;;11.90;99.90;12.30;98990.00;;;;345929;28;83660;-87
2023/02/24 00:37:50;;;;;;;;;;;11.90;99.90;12.30;98989.00;;;;345767;28;88892;-88
2023/02/24 00:38:02;;;;;;;;;;;11.90;99.90;12.40;98996.00;;;;348742;27;82516;-88
2023/02/24 00:38:14;;;;;;;;;;;11.90;99.90;12.40;98995.00;;;;345720;28;90407;-87
2023/02/24 00:38:30;;;;;;;;;;;11.90;99.90;12.30;98989.00;;;;348790;27;82543;-87
2023/02/24 00:38:45;;;;;;;;;;;11.90;99.90;12.30;98995.00;;;;346803;28;90665;-88
2023/02/24 00:38:59;;;;;;;;;;;11.90;99.90;12.30;98991.00;;;;347539;28;83425;-88
2023/02/24 00:39:12;;;;;;;;;;;11.90;99.90;12.30;98992.00;;;;345805;28;88185;-87
2023/02/24 00:39:33;;;;;;;;;;;11.90;99.90;12.30;98996.00;;;;346245;28;82565;-87
2023/02/24 00:39:45;;;;;;;;;;;11.90;99.90;12.20;98986.00;;;;347251;28;86422;-87
2023/02/24 00:39:57;;;;;;;;;;;11.90;99.90;12.20;98982.00;;;;347581;28;82325;-88
2023/02/24 00:40:10;;;;;;;;;;;11.90;99.90;12.20;98984.00;;;;347096;28;91435;-88
2023/02/24 00:40:22;;;;;;;;;;;11.90;99.90;12.20;98994.00;;;;347594;28;83161;-87
2023/02/24 00:40:36;;;;;;;;;;;11.90;99.90;12.20;98983.00;;;;347003;28;89864;-88
2023/02/24 00:40:47;;;;;;;;;;;11.90;99.90;12.20;98981.00;;;;349111;27;82360;-87
2023/02/24 00:40:59;;;;;;;;;;;11.90;99.90;12.20;98984.00;;;;348411;27;91494;-88
2023/02/24 00:41:18;;;;;;;;;;;11.90;99.90;12.20;98991.00;;;;347502;28;83241;-87
2023/02/24 00:41:31;;;;;;;;;;;11.90;99.90;12.30;98984.00;;;;347208;28;88601;-87
2023/02/24 00:41:43;;;;;;;;;;;11.90;99.90;12.20;98983.00;;;;347625;28;83319;-87
2023/02/24 00:42:03;;;;;;;;;;;11.90;99.90;12.20;98988.00;;;;345654;28;88087;-88
2023/02/24 00:42:16;;;;;;;;;;;11.90;99.90;12.20;98980.00;;;;344767;28;83618;-87
2023/02/24 00:42:27;;;;;;;;;;;11.90;99.90;12.30;98983.00;;;;344421;28;88014;-87
2023/02/24 00:42:41;;;;;;;;;;;11.90;99.90;12.40;98985.00;;;;346205;28;82399;-88
2023/02/24 00:42:53;;;;;;;;;;;11.90;99.90;12.40;98985.00;;;;347194;28;87935;-87
2023/02/24 00:43:07;;;;;;;;;;;11.90;99.90;12.30;98994.00;;;;346308;28;82400;-87
2023/02/24 00:43:19;;;;;;;;;;;11.90;99.90;12.30;98989.00;;;;347138;28;88988;-87
2023/02/24 00:43:35;;;;;;;;;;;11.90;99.90;12.20;98985.00;;;;347603;28;83376;-87
2023/02/24 00:43:48;;;;;;;;;;;11.90;99.90;12.20;98985.00;;;;348494;27;89370;-87
2023/02/24 00:44:08;;;;;;;;;;;11.90;99.90;12.20;98981.00;;;;350447;27;82498;-88
2023/02/24 00:44:22;;;;;;;;;;;11.90;99.90;12.20;98982.00;;;;349660;27;89364;-87
2023/02/24 00:44:39;;;;;;;;;;;11.90;99.90;12.10;98987.00;;;;347514;28;83308;-87
2023/02/24 00:44:52;;;;;;;;;;;11.90;99.90;12.10;98985.00;;;;345861;28;89483;-88
2023/02/24 00:45:09;;;;;;;;;;;11.90;99.90;12.10;98983.00;;;;346269;28;82262;-87
2023/02/24 00:45:20;;;;;;;;;;;11.90;99.90;12.10;98986.00;;;;345713;28;90087;-87
2023/02/24 00:45:35;;;;;;;;;;;11.90;99.90;12.10;98984.00;;;;347641;28;83360;-88
2023/02/24 00:45:50;;;;;;;;;;;11.90;99.90;12.10;98977.00;;;;345781;28;88969;-87
2023/02/24 00:46:09;;;;;;;;;;;11.90;99.90;12.10;98985.00;;;;347558;28;82491;-87
2023/02/24 00:46:24;;;;;;;;;;;11.90;99.90;12.10;98981.00;;;;347088;28;91044;-87
2023/02/24 00:46:38;;;;;;;;;;;11.80;99.90;12.10;98982.00;;;;347366;27;83608;-88
2023/02/24 00:46:50;;;;;;;;;;;11.90;99.90;12.10;98981.00;;;;347144;28;89221;-87
2023/02/24 00:47:03;;;;;;;;;;;11.90;99.90;12.10;98983.00;;;;346319;28;82378;-87
2023/02/24 00:47:15;;;;;;;;;;;11.80;99.90;12.00;98976.00;;;;346920;27;88873;-87
2023/02/24 00:47:27;;;;;;;;;;;11.80;99.90;12.00;98978.00;;;;349106;27;82531;-87
2023/02/24 00:47:39;;;;;;;;;;;11.80;99.90;12.10;98983.00;;;;345840;28;89322;-88
2023/02/24 00:47:51;;;;;;;;;;;11.80;99.90;12.00;98980.00;;;;347560;28;83367;-87
2023/02/24 00:48:03;;;;;;;;;;;11.80;99.90;12.00;98984.00;;;;345882;28;89899;-87
2023/02/24 00:48:15;;;;;;;;;;;11.80;99.90;12.00;98981.00;;;;348953;27;82228;-87
2023/02/24 00:48:27;;;;;;;;;;;11.80;99.90;12.00;98985.00;;;;346964;28;91530;-88
2023/02/24 00:48:39;;;;;;;;;;;11.80;99.90;12.00;98979.00;;;;347531;28;83587;-88
2023/02/24 00:48:55;;;;;;;;;;;11.80;99.90;12.00;98982.00;;;;345730;28;91886;-88
2023/02/24 00:49:17;;;;;;;;;;;11.80;99.90;12.00;98972.00;;;;346303;28;83208;-88
2023/02/24 00:49:29;;;;;;;;;;;11.80;99.90;11.90;98973.00;;;;345858;28;88205;-87
2023/02/24 00:49:41;;;;;;;;;;;11.80;99.90;11.90;98975.00;;;;347610;28;83388;-87
2023/02/24 00:49:54;;;;;;;;;;;11.80;99.90;11.90;98974.00;;;;347127;27;89294;-88
2023/02/24 00:50:05;;;;;;;;;;;11.70;99.90;11.80;98976.00;;;;346270;28;82493;-88
2023/02/24 00:50:17;;;;;;;;;;;11.80;99.90;11.80;98976.00;;;;345746;28;89488;-87
2023/02/24 00:50:30;;;;;;;;;;;11.80;99.90;11.80;98967.00;;;;346131;28;83342;-88
2023/02/24 00:50:42;;;;;;;;;;;11.70;99.90;11.80;98970.00;;;;348486;27;88868;-87
2023/02/24 00:50:54;;;;;;;;;;;11.70;99.90;11.80;98972.00;;;;349058;27;82492;-87
2023/02/24 00:51:09;;;;;;;;;;;11.70;99.90;11.80;98980.00;;;;345647;28;89911;-87
2023/02/24 00:51:24;;;;;;;;;;;11.70;99.90;11.80;98972.00;;;;346075;28;83496;-87
2023/02/24 00:51:38;;;;;;;;;;;11.70;99.90;11.90;98974.00;;;;345808;28;89641;-87
2023/02/24 00:51:53;;;;;;;;;;;11.70;99.90;12.00;98973.00;;;;346319;28;83336;-87
2023/02/24 00:52:05;;;;;;;;;;;11.80;99.90;12.00;98974.00;;;;346872;28;91669;-88
2023/02/24 00:52:18;;;;;;;;;;;11.80;99.90;12.00;98973.00;;;;346080;28;82570;-87
2023/02/24 00:52:30;;;;;;;;;;;11.70;99.90;12.00;98968.00;;;;345801;28;89148;-87
2023/02/24 00:52:42;;;;;;;;;;;11.70;99.90;12.00;98976.00;;;;347836;28;82457;-88
2023/02/24 00:52:54;;;;;;;;;;;11.70;99.90;12.10;98974.00;;;;347390;28;88398;-88
2023/02/24 00:53:06;;;;;;;;;;;11.70;99.90;12.10;98971.00;;;;347991;28;82411;-88
2023/02/24 00:53:17;;;;;;;;;;;11.80;99.90;12.10;98976.00;;;;348710;27;89026;-87
2023/02/24 00:53:29;;;;;;;;;;;11.80;99.90;12.20;98972.00;;;;346639;28;82556;-88
2023/02/24 00:53:41;;;;;;;;;;;11.80;99.90;12.10;98972.00;;;;347138;28;90255;-88
2023/02/24 00:53:57;;;;;;;;;;;11.80;99.90;12.10;98969.00;;;;347106;28;83558;-87
2023/02/24 00:54:13;;;;;;;;;;;11.80;99.90;12.10;98969.00;;;;348474;27;92568;-87
2023/02/24 00:54:27;;;;;;;;;;;11.70;99.90;12.10;98970.00;;;;347761;28;82624;-88
2023/02/24 00:54:42;;;;;;;;;;;11.70;99.90;12.10;98968.00;;;;348404;27;91525;-88
2023/02/24 00:54:54;;;;;;;;;;;11.70;99.90;12.10;98978.00;;;;347681;28;83394;-87
2023/02/24 00:55:12;;;;;;;;;;;11.70;99.90;12.00;98974.00;;;;345837;28;89324;-87
2023/02/24 00:55:26;;;;;;;;;;;11.70;99.90;12.00;98973.00;;;;345907;28;83556;-87
2023/02/24 00:55:38;;;;;;;;;;;11.70;99.90;11.90;98975.00;;;;347006;28;90194;-87
2023/02/24 00:55:58;;;;;;;;;;;11.70;99.90;11.90;98975.00;;;;345928;28;82643;-87
2023/02/24 00:56:15;;;;;;;;;;;11.70;99.90;12.00;98969.00;;;;345874;28;88200;-88
2023/02/24 00:56:27;;;;;;;;;;;11.70;99.90;12.00;98974.00;;;;348668;27;82645;-87
2023/02/24 00:56:42;;;;;;;;;;;11.70;99.90;12.10;98976.00;;;;347104;27;88921;-88
2023/02/24 00:56:55;;;;;;;;;;;11.70;99.90;12.10;98974.00;;;;348956;27;83378;-88
2023/02/24 00:57:07;;;;;;;;;;;11.70;99.90;12.20;98974.00;;;;348584;27;88807;-87
2023/02/24 00:57:20;;;;;;;;;;;11.70;99.90;12.30;98973.00;;;;345940;28;82533;-88
2023/02/24 00:57:34;;;;;;;;;;;11.70;99.90;12.20;98965.00;;;;345776;28;89131;-88
2023/02/24 00:57:46;;;;;;;;;;;11.70;99.90;12.20;98964.00;;;;347658;28;82404;-88
2023/02/24 00:57:58;;;;;;;;;;;11.70;99.90;12.10;98973.00;;;;347081;27;89352;-87
2023/02/24 00:58:10;;;;;;;;;;;11.70;99.90;12.20;98972.00;;;;347685;28;82436;-88
2023/02/24 00:58:21;;;;;;;;;;;11.70;99.90;12.20;98969.00;;;;344326;28;89880;-87
2023/02/24 00:58:34;;;;;;;;;;;11.70;99.90;12.20;98974.00;;;;344617;28;83486;-87
2023/02/24 00:58:46;;;;;;;;;;;11.70;99.90;12.30;98967.00;;;;345731;28;88919;-87
2023/02/24 00:58:58;;;;;;;;;;;11.70;99.90;12.20;98977.00;;;;345894;28;82656;-87
2023/02/24 00:59:10;;;;;;;;;;;11.70;99.90;12.20;98971.00;;;;347116;28;90337;-87
2023/02/24 00:59:22;;;;;;;;;;;11.70;99.90;12.20;98962.00;;;;347300;28;83826;-87
2023/02/24 00:59:35;;;;;;;;;;;11.70;99.90;12.20;98958.00;;;;348460;27;89169;-88
2023/02/24 00:59:47;;;;;;;;;;;11.70;99.90;12.20;98967.00;;;;348971;27;83277;-87
2023/02/24 00:59:59;;;;;;;;;;;11.70;99.90;12.20;98962.00;;;;348290;27;90210;-87
2023/02/24 01:00:15;;;;;;;;;;;11.80;99.90;12.20;98959.00;;;;349108;27;83342;-87
2023/02/24 01:00:27;;;;;;;;;;;11.80;99.90;12.30;98973.00;;;;345697;28;88574;-87
2023/02/24 01:00:42;;;;;;;;;;;11.80;99.90;12.30;98969.00;;;;345927;28;82376;-87
2023/02/24 01:00:54;;;;;;;;;;;11.80;99.90;12.30;98971.00;;;;345705;28;90266;-87
2023/02/24 01:01:18;;;;;;;;;;;11.80;99.90;12.50;98974.00;;;;344831;28;83390;-86
2023/02/24 01:01:31;;;;;;;;;;;11.80;99.90;12.50;98974.00;;;;346868;28;89501;-87
2023/02/24 01:01:44;;;;;;;;;;;11.80;99.90;12.40;98966.00;;;;347519;28;82446;-87
2023/02/24 01:01:56;;;;;;;;;;;11.80;99.90;12.40;98965.00;;;;345690;28;90367;-88
2023/02/24 01:02:10;;;;;;;;;;;11.80;99.90;12.30;98970.00;;;;344944;28;83304;-87
2023/02/24 01:02:22;;;;;;;;;;;11.80;99.90;12.30;98976.00;;;;344421;28;88100;-87
2023/02/24 01:02:33;;;;;;;;;;;11.80;99.90;12.20;98960.00;;;;346116;28;83406;-87
2023/02/24 01:02:46;;;;;;;;;;;11.80;99.90;12.20;98965.00;;;;345473;28;90983;-87
2023/02/24 01:02:58;;;;;;;;;;;11.80;99.90;12.20;98962.00;;;;347213;28;82591;-87
2023/02/24 01:03:10;;;;;;;;;;;11.80;99.90;12.20;98965.00;;;;345505;28;89724;-87
2023/02/24 01:03:21;;;;;;;;;;;11.80;99.90;12.30;98969.00;;;;345951;28;83580;-88
2023/02/24 01:03:33;;;;;;;;;;;11.80;99.90;12.30;98970.00;;;;344443;28;87193;-87
2023/02/24 01:03:47;;;;;;;;;;;11.80;99.90;12.30;98967.00;;;;345968;28;82683;-87
2023/02/24 01:04:04;;;;;;;;;;;11.80;99.90;12.30;98961.00;;;;347151;28;87671;-87
2023/02/24 01:04:17;;;;;;;;;;;11.80;99.90;12.30;98970.00;;;;347622;28;83356;-87
2023/02/24 01:04:29;;;;;;;;;;;11.80;99.90;12.40;98968.00;;;;347202;28;87850;-87
2023/02/24 01:04:43;;;;;;;;;;;11.90;99.90;12.50;98959.00;;;;346159;28;82420;-87
2023/02/24 01:04:55;;;;;;;;;;;11.90;99.90;12.40;98973.00;;;;347157;28;88476;-87
2023/02/24 01:05:08;;;;;;;;;;;11.80;99.90;12.30;98961.00;;;;345982;28;83484;-87
2023/02/24 01:05:20;;;;;;;;;;;11.80;99.90;12.30;98966.00;;;;347088;28;89918;-87
2023/02/24 01:05:34;;;;;;;;;;;11.90;99.90;12.30;98969.00;;;;345888;28;82592;-88
2023/02/24 01:05:46;;;;;;;;;;;11.90;99.90;12.30;98970.00;;;;347126;28;88987;-87
2023/02/24 01:06:05;;;;;;;;;;;11.80;99.90;12.20;98972.00;;;;346116;28;83605;-87
2023/02/24 01:06:20;;;;;;;;;;;11.90;99.90;12.20;98968.00;;;;344361;28;90326;-88
2023/02/24 01:06:33;;;;;;;;;;;11.90;99.90;12.20;98956.00;;;;344703;28;83994;-87
2023/02/24 01:06:49;;;;;;;;;;;11.90;99.90;12.10;98970.00;;;;348494;27;88648;-87